Flight Track Log - Related Links

Times and Time Zones

All times are in EDT time to prevent confusion due to time zone crossing. See the SWA378 flight status page for this flight to view local times or setup timezone preferences in your user account.

Time Position Orientation Groundspeed Altitude Reporting Facility
EDT Latitude Longitude Course Direction KTS MPH feet Rate Location/Type
Tue 11:35:54 AM 37.3833 -121.9500 338° Northwest 151 174 1,600  Level Northern Cal TRACON
Tue 11:36:54 AM 37.4167 -121.9667 338° Northwest 194 223 4,400 2,050 Climbing Northern Cal TRACON
Tue 11:37:54 AM 37.4167 -121.9000 90° East 230 265 5,700 2,219 Climbing Northern Cal TRACON
Tue 11:39:20 AM 37.3319 -121.8092 140° Southeast 267 307 9,800 2,878 Climbing Oakland Center
Tue 11:40:22 AM 37.2622 -121.7297 138° Southeast 339 390 12,800 3,268 Climbing Oakland Center
Tue 11:41:23 AM 37.1831 -121.6422 139° Southeast 377 434 16,500 3,541 Climbing Oakland Center
Tue 11:42:24 AM 37.1006 -121.5525 139° Southeast 392 451 20,000 3,171 Climbing Oakland Center
Tue 11:43:26 AM 37.0144 -121.4542 138° Southeast 413 475 23,000 2,829 Climbing Oakland Center
Tue 11:44:27 AM 36.9253 -121.3550 138° Southeast 428 493 25,800 2,537 Climbing Oakland Center
Tue 11:45:29 AM 36.8325 -121.2514 138° Southeast 445 512 28,200 2,341 Climbing Oakland Center
Tue 11:46:30 AM 36.7275 -121.1417 140° Southeast 460 529 30,600 2,098 Climbing Oakland Center
Tue 11:47:32 AM 36.6297 -121.0328 138° Southeast 470 541 32,500 2,195 Climbing Oakland Center
Tue 11:48:33 AM 36.5317 -120.9247 138° Southeast 471 542 35,100 2,293 Climbing Oakland Center
Tue 11:49:35 AM 36.4364 -120.8208 139° Southeast 457 526 37,200 1,707 Climbing Oakland Center
Tue 11:50:36 AM 36.3417 -120.7158 138° Southeast 457 526 38,600 1,574 Climbing Oakland Center
Tue 11:51:37 AM 36.2244 -120.5928 140° Southeast 459 528 40,400 1,171 Climbing Oakland Center
Tue 11:52:39 AM 36.1286 -120.4897 139° Southeast 456 525 41,000 293 Climbing Oakland Center
Tue 11:53:40 AM 36.0322 -120.3878 139° Southeast 455 524 41,000  Level Oakland Center
Tue 11:54:42 AM 35.9369 -120.2842 139° Southeast 454 522 41,000  Level Oakland Center
Tue 11:55:43 AM 35.8417 -120.1831 139° Southeast 450 518 41,000  Level Oakland Center
Tue 11:56:45 AM 35.7467 -120.0822 139° Southeast 447 514 41,000  Level Oakland Center
Tue 11:57:46 AM 35.6514 -119.9831 140° Southeast 444 511 41,000  Level Oakland Center
Tue 11:58:48 AM 35.5500 -119.8942 144° Southeast 444 511 41,000  Level Oakland Center
Tue 11:59:49 AM 35.4492 -119.8064 145° Southeast 442 509 41,000  Level Oakland Center
Tue 12:00:50 PM 35.3494 -119.7211 145° Southeast 437 503 41,000 -585 Level Oakland Center
Tue 12:01:52 PM 35.2500 -119.6361 145° Southeast 434 499 39,800 -1,925 Descending Oakland Center
Tue 12:03:04 PM 35.1328 -119.5350 145° Southeast 434 499 36,700 -3,045 Descending Los Angeles Center
Tue 12:04:06 PM 35.0083 -119.4308 146° Southeast 448 516 33,000 -2,903 Descending Los Angeles Center
Tue 12:05:08 PM 34.9264 -119.3597 145° Southeast 450 518 30,700 -2,565 Descending Los Angeles Center
Tue 12:06:10 PM 34.8061 -119.2583 145° Southeast 440 506 27,700 -2,613 Descending Los Angeles Center
Tue 12:07:12 PM 34.7097 -119.1756 145° Southeast 428 493 25,300 -2,371 Descending Los Angeles Center
Tue 12:08:14 PM 34.6069 -119.0903 146° Southeast 416 479 22,800 -2,323 Descending Los Angeles Center
Tue 12:09:16 PM 34.5164 -119.0139 145° Southeast 399 459 20,500 -2,177 Descending Los Angeles Center
Tue 12:10:18 PM 34.4281 -118.9419 146° Southeast 384 442 18,300 -2,129 Descending Los Angeles Center
Tue 12:11:20 PM 34.3417 -118.8750 147° Southeast 368 423 16,100 -2,400 Descending Los Angeles Center
Tue 12:12:23 PM 34.2250 -118.8322 163° South 365 420 13,300 -1,968 Descending Los Angeles Center
Tue 12:13:25 PM 34.1308 -118.7986 164° South 354 407 12,000 -823 Descending Los Angeles Center
Tue 12:14:27 PM 34.0425 -118.7506 156° South 344 396 11,600 -823 Descending Los Angeles Center
Tue 12:15:29 PM 34.0278 -118.6375 99° East 318 366 10,300 -1,258 Descending Los Angeles Center
Tue 12:16:31 PM 34.0178 -118.5356 97° East 307 353 9,000 -1,268 Descending Los Angeles Center
Tue 12:17:32 PM 34.0100 -118.4483 96° East 307 353 7,700 -1,500 Descending Los Angeles Center
Tue 12:18:35 PM 34.0217 -118.3475 82° East 288 331 5,900 -1,728 Descending Los Angeles Center
Tue 12:19:37 PM 34.0389 -118.2361 79° East 281 323 4,100 -1,306 Descending Los Angeles Center
Tue 12:20:39 PM 34.0533 -118.1561 78° East 246 283 3,200 -730 Descending Los Angeles Center
Tue 12:21:32 PM 34.0333 -118.1000 113° Southeast 225 259 2,700 -265 Descending Southern California TRACON
Tue 12:22:32 PM 33.9833 -118.1333 209° Southwest 216 249 2,700  Level Southern California TRACON
Tue 12:23:32 PM 33.9667 -118.2000 253° West 212 244 2,700 -158 Level Southern California TRACON
Tue 12:24:26 PM 33.9667 -118.2667 270° West 195 224 2,400 -480 Descending Southern California TRACON
Tue 12:24:47 PM 33.9639 -118.2842 259° West 192 221 2,100 -688 Descending Los Angeles Center
Tue 12:26:02 PM 33.9592 -118.3333 263° West 151 174 1,300 -701 Descending Los Angeles Center
Tue 12:27:04 PM 33.9544 -118.3869 264° West 136 157 500 -532 Descending Los Angeles Center
Tue 12:28:06 PM 33.9506 -118.4275 263° West 135 155 200 -290 Descending Los Angeles Center

Login

Don't have an account? Register now (free) for customized features, flight alerts, and more!